Latest Weather Observations for PORTABLE RFSNSW51

IDN60801

Issued at 12:22 pm EDT Thursday 21 November 2019 (issued every 10 minutes, with the page automatically refreshed every 10 minutes)

About weather observations | Map of weather stations | Latest weather observations for NSW | Other Formats
Station Details ID: 250098 Name: PORTABLE RFSNSW51 Lat: -35.49 Lon: 146.97 Height: 228.0 m

Portable automatic weather stations (PAWS) are operated by other organisations, such as Fire and Emergency Services, and are included here by agreement. Portable stations may be deployed to a location for a short period and their location may be subject to change without notice. Wind observations from these stations are provided from heights of either three (3) or ten (10) metres above ground level (AGL).

Data from the previous 72 hours. | See also: Recent months for locations in New South Wales
Date/Time
EDT
Temp
°C
App
Temp
°C
Dew
Point
°C
Rel
Hum
%
Delta-T
°C
Wind Press
QNH
hPa
Press
MSL
hPa
Rain since
9am
mm
Dir  Spd
km/h
Gust
km/h
Spd
kts
Gust
kts
21/12:10pm 37.4 31.0 6.8 15 17.2 N 30 35 16 19 - - 0.0
21/12:00pm 37.0 30.6 7.1 16 16.9 NNE 30 35 16 19 - - 0.0
21/11:50am 36.3 30.3 7.2 16 16.4 NNE 28 32 15 17 - - 0.0
21/11:40am 35.7 29.4 7.3 17 16.0 N 30 33 16 18 - - 0.0
21/11:30am 36.0 30.1 7.5 17 16.1 N 28 41 15 22 - - 0.0
21/11:20am 35.3 28.5 7.1 17 15.8 N 32 37 17 20 - - 0.0
21/11:10am 34.8 28.0 7.5 18 15.3 N 33 39 18 21 - - 0.0
21/11:00am 34.5 27.7 7.1 18 15.3 N 32 35 17 19 - - 0.0
21/10:50am 34.1 27.8 7.6 19 14.8 NNE 30 35 16 19 - - 0.0
21/10:40am 33.4 27.3 8.1 21 14.2 NNE 30 35 16 19 - - 0.0
21/10:30am 33.3 27.6 8.3 21 14.1 NNE 28 33 15 18 - - 0.0
21/10:20am - - 8.5 - - NNE 30 33 16 18 - - 0.0
21/10:00am - - 8.7 - - NNE 28 33 15 18 - - 0.0
21/09:50am - - 9.1 - - NNE 33 37 18 20 - - 0.0
21/09:40am - - 8.6 - - N 32 37 17 20 - - 0.0
21/09:30am - - 9.0 - - NNE 28 33 15 18 - - 0.0
21/09:20am - - 9.2 - - NNE 30 33 16 18 - - 0.0
21/09:10am - - 9.1 - - NNE 28 32 15 17 - - 0.0
21/09:00am - - 9.1 - - NNE 28 33 15 18 - - 0.0
21/08:50am - - 8.9 - - NNE 26 30 14 16 - - 0.0
21/08:40am - - 9.1 - - NE 26 30 14 16 - - 0.0
21/08:30am - - 8.9 - - NNE 26 28 14 15 - - 0.0
21/08:20am - - 8.9 - - NNE 26 30 14 16 - - 0.0
21/08:00am - - 8.9 - - NNE 26 30 14 16 - - 0.0
21/07:50am - - 8.9 - - NNE 28 33 15 18 - - 0.0
21/07:40am - - 8.9 - - NNE 26 30 14 16 - - 0.0
21/07:30am - - 8.8 - - NNE 26 28 14 15 - - 0.0
21/07:20am - - 8.7 - - NNE 24 28 13 15 - - 0.0
21/07:10am - - 8.6 - - NE 22 26 12 14 - - 0.0
21/07:00am - - 8.5 - - NE 19 22 10 12 - - 0.0
21/06:50am - - 8.4 - - NE 19 20 10 11 - - 0.0
21/06:40am - - 8.2 - - NE 20 22 11 12 - - 0.0
21/06:30am - - 8.1 - - NE 17 20 9 11 - - 0.0
21/06:20am - - 7.8 - - NE 13 17 7 9 - - 0.0
21/06:10am - - 7.8 - - NNE 13 15 7 8 - - 0.0
21/06:00am - - 7.8 - - NNE 15 17 8 9 - - 0.0
21/05:50am - - 7.7 - - NNE 17 24 9 13 - - 0.0
21/05:40am - - 7.3 - - NNE 20 24 11 13 - - 0.0
21/05:30am - - 7.3 - - NE 17 19 9 10 - - 0.0
21/05:20am - - 7.1 - - NE 19 20 10 11 - - 0.0
21/05:10am - - 6.8 - - NE 20 22 11 12 - - 0.0
21/05:00am - - 6.5 - - NE 17 22 9 12 - - 0.0
21/04:20am 23.5 19.6 5.5 31 9.2 ENE 15 17 8 9 - - 0.0
21/04:10am 23.4 19.8 5.1 30 9.3 ENE 13 15 7 8 - - 0.0
21/04:00am 23.3 19.6 4.6 29 9.4 ENE 13 15 7 8 - - 0.0
21/03:50am 23.4 20.1 4.6 29 9.4 ENE 11 13 6 7 - - 0.0
21/03:40am 23.8 20.1 4.2 28 9.8 ENE 13 15 7 8 - - 0.0
21/03:30am 23.9 20.1 3.9 27 9.9 ENE 13 15 7 8 - - 0.0
21/03:20am 24.1 19.8 3.2 25 10.3 ENE 15 17 8 9 - - 0.0
21/03:10am 23.7 19.7 2.6 25 10.2 ENE 13 15 7 8 - - 0.0
21/03:00am 22.8 18.7 2.0 25 9.9 ENE 13 15 7 8 - - 0.0
21/02:50am 22.4 19.0 2.0 26 9.7 ENE 9 11 5 6 - - 0.0
21/02:40am 22.9 19.9 0.9 23 10.2 NE 6 6 3 3 - - 0.0
21/02:30am 23.0 20.0 0.7 23 10.4 NNE 6 6 3 3 - - 0.0
21/02:20am 22.9 19.6 0.3 22 10.4 NE 7 7 4 4 - - 0.0
21/02:10am 22.7 19.5 -0.2 22 10.4 NNE 6 7 3 4 - - 0.0
21/02:00am 22.0 19.3 0.3 23 9.9 NNE 4 4 2 2 - - 0.0
21/01:50am 21.9 19.6 0.6 24 9.8 N 2 4 1 2 - - 0.0
21/01:40am 23.1 20.4 0.5 22 10.5 NE 4 6 2 3 - - 0.0
21/01:30am 23.0 19.9 0.1 22 10.5 NE 6 7 3 4 - - 0.0
21/01:20am 23.1 19.9 0.6 22 10.4 N 7 7 4 4 - - 0.0
21/01:10am 24.1 20.8 0.2 20 11.1 NE 7 9 4 5 - - 0.0
21/01:00am 24.4 21.1 0.4 20 11.2 ENE 7 9 4 5 - - 0.0
21/12:50am 24.5 21.2 0.2 20 11.3 ENE 7 7 4 4 - - 0.0
21/12:40am 24.4 21.1 0.0 20 11.3 ENE 7 7 4 4 - - 0.0
21/12:30am 24.2 21.1 0.2 20 11.1 ENE 6 7 3 4 - - 0.0
21/12:20am 24.5 21.5 0.5 20 11.2 ENE 6 6 3 3 - - 0.0
21/12:10am 24.7 21.7 0.8 21 11.3 ENE 6 7 3 4 - - 0.0
21/12:00am 24.5 21.2 0.1 20 11.3 NE 7 9 4 5 - - 0.0
 
Date/Time
EDT
Temp
°C
App
Temp
°C
Dew
Point
°C
Rel
Hum
%
Delta-T
°C
Wind Press
QNH
hPa
Press
MSL
hPa
Rain since
9am
mm
Dir  Spd
km/h
Gust
km/h
Spd
kts
Gust
kts
20/11:50pm 24.3 21.0 0.3 20 11.2 NE 7 9 4 5 - - 0.0
20/11:40pm 23.9 20.6 -0.1 20 11.1 NE 7 9 4 5 - - 0.0
20/11:30pm 23.0 19.7 0.1 22 10.5 NE 7 7 4 4 - - 0.0
20/11:20pm 22.9 19.8 0.1 22 10.5 ENE 6 7 3 4 - - 0.0
20/11:00pm 22.2 18.9 0.2 23 10.1 ENE 7 9 4 5 - - 0.0
20/10:50pm 21.9 18.8 1.2 25 9.6 ENE 7 9 4 5 - - 0.0
20/10:40pm 22.1 19.0 1.1 25 9.8 ENE 7 9 4 5 - - 0.0
20/10:30pm 23.4 20.4 2.0 24 10.2 ENE 7 9 4 5 - - 0.0
20/10:20pm 23.3 20.2 0.1 21 10.7 E 6 7 3 4 - - 0.0
20/10:10pm 23.5 20.5 0.8 22 10.6 E 6 7 3 4 - - 0.0
20/10:00pm 24.6 21.5 0.2 20 11.4 ENE 6 7 3 4 - - 0.0
20/09:50pm 24.6 21.2 -0.4 19 11.5 ENE 7 9 4 5 - - 0.0
20/09:40pm 24.8 21.2 0.6 20 11.4 E 9 9 5 5 - - 0.0
20/09:30pm 24.4 20.7 -0.1 20 11.3 E 9 9 5 5 - - 0.0
20/09:20pm 24.5 20.9 0.4 20 11.3 E 9 9 5 5 - - 0.0
20/09:10pm 23.9 20.2 -0.3 20 11.1 E 9 9 5 5 - - 0.0
20/09:00pm 23.8 20.7 1.3 22 10.6 E 7 9 4 5 - - 0.0
20/08:50pm 24.3 21.0 0.1 20 11.2 E 7 9 4 5 - - 0.0
20/08:40pm 25.0 21.7 0.4 20 11.5 E 7 9 4 5 - - 0.0
20/08:30pm 25.6 21.9 0.1 18 11.9 E 9 9 5 5 - - 0.0
20/08:20pm 26.1 22.5 0.7 19 12.1 ESE 9 9 5 5 - - 0.0
20/08:10pm 26.7 23.1 0.9 18 12.4 E 9 11 5 6 - - 0.0
20/08:00pm 27.7 24.0 -0.2 16 13.2 ESE 9 11 5 6 - - 0.0
20/07:50pm 29.8 26.9 1.7 16 13.9 E 6 9 3 5 - - 0.0
20/07:40pm 32.3 29.9 2.0 14 15.4 NE 4 4 2 2 - - 0.0
20/07:30pm 33.6 31.1 -1.3 10 16.9 NNW 2 4 1 2 - - 0.0
20/07:20pm 34.4 31.9 -1.0 10 17.3 NNW 2 2 1 1 - - 0.0
20/07:10pm 34.7 31.8 -1.3 10 17.5 NNE 4 6 2 3 - - 0.0
20/07:00pm 34.9 31.4 -1.4 10 17.7 NNE 7 7 4 4 - - 0.0
20/06:50pm 35.3 32.0 -1.3 9 17.9 ENE 6 7 3 4 - - 0.0
20/06:40pm 35.4 31.5 -1.4 9 18.0 ENE 9 13 5 7 - - 0.0
20/06:30pm 35.5 31.6 -1.2 9 18.0 ESE 9 11 5 6 - - 0.0
20/06:20pm 35.6 32.1 -1.2 9 18.1 SE 7 11 4 6 - - 0.0
20/06:10pm 35.9 32.4 -1.1 9 18.2 E 7 9 4 5 - - 0.0
20/06:00pm 36.0 32.5 -1.3 9 18.3 E 7 9 4 5 - - 0.0
20/05:50pm 36.3 32.8 -1.0 9 18.5 E 7 9 4 5 - - 0.0
20/05:40pm 36.6 33.8 -0.7 9 18.6 NNE 4 7 2 4 - - 0.0
20/05:30pm 36.7 33.2 -1.5 9 18.8 WNW 7 9 4 5 - - 0.0
20/05:20pm 36.8 33.5 -1.1 9 18.8 NNW 6 7 3 4 - - 0.0
20/05:10pm 36.4 32.9 -1.2 9 18.6 NNW 7 13 4 7 - - 0.0
20/05:00pm 36.8 33.0 -1.0 9 18.8 W 9 13 5 7 - - 0.0
20/04:50pm 37.4 33.9 -1.4 8 19.2 WNW 7 11 4 6 - - 0.0
20/04:40pm 36.2 32.9 -1.4 9 18.5 NW 6 7 3 4 - - 0.0
20/04:30pm 35.9 32.0 -1.4 9 18.3 WSW 9 13 5 7 - - 0.0
20/04:20pm 36.2 33.3 -1.1 9 18.4 SW 4 9 2 5 - - 0.0
20/04:10pm 36.4 33.1 -1.0 9 18.5 ESE 6 9 3 5 - - 0.0
20/04:00pm 36.7 33.2 -1.1 9 18.7 WSW 7 15 4 8 - - 0.0
20/03:50pm 36.8 33.5 -1.3 9 18.8 WNW 6 7 3 4 - - 0.0
20/03:40pm 35.7 31.4 -1.3 9 18.2 WSW 11 15 6 8 - - 0.0
20/03:30pm 35.8 31.9 -1.2 9 18.2 WSW 9 15 5 8 - - 0.0
20/03:20pm 36.1 32.8 -1.3 9 18.4 W 6 11 3 6 - - 0.0
20/03:10pm 35.7 32.4 -1.4 9 18.2 ESE 6 11 3 6 - - 0.0
20/03:00pm 35.3 31.4 -1.2 10 17.9 E 9 13 5 7 - - 0.0
20/02:50pm 35.8 32.5 -1.1 9 18.2 SSW 6 11 3 6 - - 0.0
20/02:40pm 35.3 31.5 -0.9 10 17.8 W 9 13 5 7 - - 0.0
20/02:30pm 36.1 32.6 -1.0 9 18.3 NW 7 15 4 8 - - 0.0
20/02:20pm 36.7 33.4 -1.3 9 18.8 NE 6 7 3 4 - - 0.0
20/02:10pm 36.4 33.1 -1.5 9 18.6 NE 6 7 3 4 - - 0.0
20/02:00pm 35.4 32.1 -1.1 10 17.9 ENE 6 9 3 5 - - 0.0
20/01:50pm 34.5 31.0 -1.5 10 17.5 W 7 11 4 6 - - 0.0
20/01:40pm 34.7 31.3 -0.9 10 17.5 NNW 7 11 4 6 - - 0.0
20/01:30pm 34.5 30.6 -1.6 10 17.5 NW 9 11 5 6 - - 0.0
20/01:20pm 33.9 30.4 -1.2 10 17.0 NNE 7 11 4 6 - - 0.0
20/01:10pm 33.4 30.0 -0.4 11 16.6 ENE 7 9 4 5 - - 0.0
20/01:00pm 33.7 30.0 -0.1 11 16.7 NE 9 13 5 7 - - 0.0
20/12:50pm 33.3 29.9 -0.6 11 16.6 WNW 7 9 4 5 - - 0.0
20/12:40pm 32.9 29.1 -0.5 12 16.3 N 9 13 5 7 - - 0.0
20/12:30pm 32.6 28.9 -0.1 12 16.0 NW 9 13 5 7 - - 0.0
20/12:20pm 32.4 29.2 0.5 13 15.8 NNE 7 11 4 6 - - 0.0
20/12:10pm 32.8 28.6 -0.6 12 16.3 NNE 11 13 6 7 - - 0.0
20/12:00pm 31.7 28.4 0.2 13 15.4 NNW 7 11 4 6 - - 0.0
20/11:50am 31.8 27.8 0.5 13 15.4 N 11 15 6 8 - - 0.0
20/11:40am 31.9 28.7 0.7 13 15.4 NNE 7 11 4 6 - - 0.0
20/11:30am 31.2 27.3 0.9 14 15.0 N 11 15 6 8 - - 0.0
20/11:20am 31.0 27.4 0.3 14 15.0 N 9 15 5 8 - - 0.0
20/11:10am 30.8 27.5 0.0 14 14.9 NE 7 11 4 6 - - 0.0
20/11:00am 30.1 26.7 -0.5 14 14.6 NNE 7 13 4 7 - - 0.0
20/10:50am 29.8 26.4 -0.7 14 14.5 NNE 7 13 4 7 - - 0.0
20/10:40am 29.2 25.5 -0.2 15 14.1 NE 9 17 5 9 - - 0.0
20/10:30am 28.9 25.3 0.3 15 13.8 NE 9 15 5 8 - - 0.0
20/10:20am 28.3 24.2 2.5 19 12.9 NE 13 17 7 9 - - 0.0
20/10:10am 28.0 23.8 3.9 21 12.3 ENE 15 19 8 10 - - 0.0
20/10:00am 27.9 24.3 4.8 23 12.0 NE 13 19 7 10 - - 0.0
20/09:50am 27.3 23.8 5.3 24 11.4 NNE 13 17 7 9 - - 0.0
20/09:40am 26.8 23.7 5.4 25 11.1 NE 11 17 6 9 - - 0.0
20/09:30am 26.3 22.8 5.4 26 10.8 NNE 13 15 7 8 - - 0.0
20/09:20am 26.1 23.0 5.7 27 10.6 NNE 11 17 6 9 - - 0.0
20/09:10am 25.6 22.6 5.9 28 10.2 NE 11 13 6 7 - - 0.0
20/09:00am 24.9 21.9 6.1 30 9.8 NNE 11 15 6 8 - - 0.0
20/08:50am 24.5 21.2 6.3 31 9.5 NNE 13 17 7 9 - - 0.0
20/08:40am 24.0 21.0 6.2 31 9.2 NNE 11 13 6 7 - - 0.0
20/08:30am 23.3 19.9 6.0 32 8.9 NNE 13 17 7 9 - - 0.0
20/08:20am 22.8 19.0 5.9 33 8.6 NE 15 17 8 9 - - 0.0
20/08:10am 22.3 18.5 5.9 34 8.4 NNE 15 17 8 9 - - 0.0
20/08:00am 21.9 18.5 5.8 35 8.2 NE 13 15 7 8 - - 0.0
20/07:50am 21.1 17.9 5.1 35 8.0 ENE 11 13 6 7 - - 0.0
20/07:40am 20.3 17.0 4.7 36 7.7 NE 11 13 6 7 - - 0.0
20/07:30am 20.0 17.4 4.1 35 7.7 NE 7 9 4 5 - - 0.0
20/07:20am 19.0 17.3 3.8 36 7.3 NNE 2 4 1 2 - - 0.0
20/07:10am 17.0 15.3 4.2 42 6.1 SSE 2 2 1 1 - - 0.0
20/07:00am 15.1 13.4 3.9 47 5.2 SE 2 4 1 2 - - 0.0
20/06:50am 13.1 10.9 3.4 51 4.4 SE 4 6 2 3 - - 0.0
20/06:40am 11.3 8.7 3.2 57 3.6 SE 6 6 3 3 - - 0.0
20/06:30am 10.0 7.7 2.7 60 3.2 ESE 4 4 2 2 - - 0.0
20/06:20am 10.2 7.9 2.5 59 3.3 ENE 4 4 2 2 - - 0.0
20/06:10am 10.0 7.7 2.7 60 3.2 NNE 4 4 2 2 - - 0.0
20/06:00am 9.4 7.0 2.1 60 3.1 NE 4 4 2 2 - - 0.0
20/05:50am 9.6 7.3 2.7 62 3.0 E 4 4 2 2 - - 0.0
20/05:40am 10.2 8.4 3.5 63 3.0 ESE 2 4 1 2 - - 0.0
20/05:30am 11.8 10.3 3.1 55 3.9 CALM 0 2 0 1 - - 0.0
20/05:20am 12.3 10.8 3.2 54 4.1 CALM 0 2 0 1 - - 0.0
20/05:10am 11.8 9.9 3.1 55 3.9 S 2 2 1 1 - - 0.0
20/05:00am 11.7 9.8 3.1 55 3.8 SE 2 4 1 2 - - 0.0
20/04:50am 12.2 10.3 3.0 53 4.1 SE 2 2 1 1 - - 0.0
20/04:40am 11.5 9.6 2.9 55 3.8 E 2 4 1 2 - - 0.0
20/04:30am 10.8 8.7 4.0 63 3.1 ENE 4 6 2 3 - - 0.0
20/04:20am 10.6 8.3 3.0 59 3.3 ENE 4 6 2 3 - - 0.0
20/04:10am 11.7 9.0 2.9 55 3.9 ENE 6 6 3 3 - - 0.0
20/04:00am 12.5 10.7 3.5 54 4.1 E 2 6 1 3 - - 0.0
20/03:50am 13.7 11.9 3.4 50 4.7 S 2 4 1 2 - - 0.0
20/03:40am 14.4 12.6 3.3 47 5.1 SSW 2 4 1 2 - - 0.0
20/03:30am 15.1 12.6 3.5 46 5.4 SW 6 7 3 4 - - 0.0
20/03:20am 15.9 13.2 2.5 40 6.1 SSW 6 7 3 4 - - 0.0
20/03:10am 14.9 11.7 3.1 45 5.4 SW 9 11 5 6 - - 0.0
20/03:00am 15.0 11.8 3.3 45 5.4 SW 9 9 5 5 - - 0.0
20/02:50am 15.8 12.7 3.6 44 5.7 SW 9 9 5 5 - - 0.0
20/02:40am 17.2 14.0 2.9 38 6.6 SSW 9 9 5 5 - - 0.0
 
Date/Time
EDT
Temp
°C
App
Temp
°C
Dew
Point
°C
Rel
Hum
%
Delta-T
°C
Wind Press
QNH
hPa
Press
MSL
hPa
Rain since
9am
mm
Dir  Spd
km/h
Gust
km/h
Spd
kts
Gust
kts
19/02:10pm 34.4 28.3 -2.2 9 17.5 W 20 30 11 16 - - 0.0
19/02:00pm 34.0 27.5 -2.2 10 17.3 W 22 28 12 15 - - 0.0
19/01:50pm 33.5 27.6 -2.1 10 17.0 WSW 19 26 10 14 - - 0.0
19/01:40pm 33.8 27.4 -2.0 10 17.1 WSW 22 33 12 18 - - 0.0
19/01:30pm 33.4 27.5 -1.0 11 16.7 W 20 28 11 15 - - 0.0
19/01:20pm 33.5 27.6 -2.6 10 17.1 WNW 19 24 10 13 - - 0.0
19/01:10pm 33.0 27.1 -1.0 11 16.5 WSW 20 28 11 15 - - 0.0
19/01:00pm 33.3 27.7 -0.1 12 16.5 W 19 26 10 14 - - 0.0
19/12:50pm 32.6 27.7 -0.3 12 16.1 W 15 24 8 13 - - 0.0
19/12:40pm 32.5 28.0 -0.3 12 16.0 W 13 19 7 10 - - 0.0
19/12:30pm 32.5 28.0 -0.5 12 16.1 W 13 19 7 10 - - 0.0
19/12:20pm 32.6 27.0 -0.3 12 16.1 W 19 22 10 12 - - 0.0
19/12:10pm 32.2 26.5 -0.7 12 15.9 WNW 19 26 10 14 - - 0.0
19/12:00pm 31.8 26.1 -0.5 12 15.6 W 19 22 10 12 - - 0.0
19/11:50am 31.9 27.3 -0.8 12 15.8 WNW 13 19 7 10 - - 0.0
19/11:40am 31.2 25.9 -0.7 13 15.3 W 17 22 9 12 - - 0.0
19/11:30am 31.0 25.2 -0.2 13 15.1 W 20 26 11 14 - - 0.0
19/11:20am 30.9 25.0 -0.5 13 15.1 W 20 26 11 14 - - 0.0
19/11:10am 31.1 25.4 -0.5 13 15.2 W 19 24 10 13 - - 0.0
19/11:00am 30.4 24.8 -0.2 14 14.8 WSW 19 20 10 11 - - 0.0
19/10:50am 30.6 25.3 -0.3 13 14.9 W 17 22 9 12 - - 0.0
19/10:40am 30.2 24.7 0.4 14 14.5 W 19 24 10 13 - - 0.0
19/10:30am 29.8 24.2 0.2 15 14.3 W 19 22 10 12 - - 0.0
19/10:20am 29.5 24.7 0.2 15 14.1 W 15 20 8 11 - - 0.0
19/10:10am 29.3 23.8 0.3 15 14.0 WNW 19 22 10 12 - - 0.0
19/10:00am 29.0 24.6 0.3 15 13.8 WNW 13 17 7 9 - - 0.0
19/09:50am 28.9 24.9 0.8 16 13.6 WNW 11 15 6 8 - - 0.0
19/09:40am 28.6 24.6 0.7 16 13.5 NW 11 15 6 8 - - 0.0
19/09:30am 27.5 23.5 0.8 17 12.8 WNW 11 13 6 7 - - 0.0
19/09:20am 26.8 23.3 1.0 18 12.4 WNW 9 15 5 8 - - 0.0
19/09:10am 26.5 22.6 0.9 19 12.2 WNW 11 13 6 7 - - 0.0
19/09:00am 26.0 22.4 0.8 19 12.0 NW 9 15 5 8 - - 0.0
19/08:50am 25.2 21.0 1.6 21 11.3 WNW 13 17 7 9 - - 0.0
19/08:40am 24.5 20.6 1.2 21 11.0 NNW 11 17 6 9 - - 0.0
19/08:30am 23.6 19.9 2.1 24 10.3 NNW 11 15 6 8 - - 0.0
19/08:20am 22.9 19.2 2.1 25 9.9 NNW 11 13 6 7 - - 0.0
19/08:10am 22.2 18.5 2.3 27 9.5 NNW 11 15 6 8 - - 0.0
19/08:00am 21.6 18.3 2.4 28 9.1 N 9 11 5 6 - - 0.0
19/07:50am 20.7 17.4 2.7 30 8.5 N 9 11 5 6 - - 0.0
19/07:40am 20.1 16.8 2.6 31 8.2 NNW 9 11 5 6 - - 0.0
19/07:30am 19.8 17.0 2.9 32 8.0 NNW 7 9 4 5 - - 0.0
19/07:20am 19.5 16.7 3.0 33 7.8 N 7 9 4 5 - - 0.0
19/07:10am 18.9 16.2 2.9 34 7.5 N 6 7 3 4 - - 0.0
19/07:00am 17.8 15.2 3.0 37 6.9 NNE 6 6 3 3 - - 0.0
19/06:50am 16.7 14.1 3.3 40 6.2 NNE 6 7 3 4 - - 0.0
19/06:40am 15.8 13.3 3.7 44 5.6 NNE 6 6 3 3 - - 0.0
19/06:30am 15.2 12.5 2.7 43 5.7 NNE 6 7 3 4 - - 0.0
19/06:20am 14.8 11.8 2.2 42 5.6 NNE 7 7 4 4 - - 0.0
19/06:10am 14.0 11.0 2.1 44 5.3 NNE 7 9 4 5 - - 0.0
19/06:00am 13.8 10.9 2.4 46 5.1 NNE 7 9 4 5 - - 0.0
19/05:50am 13.9 11.0 2.4 45 5.1 NNE 7 7 4 4 - - 0.0
19/05:40am 14.0 11.1 2.4 45 5.2 NNE 7 7 4 4 - - 0.0
19/05:30am 14.1 11.1 2.3 45 5.3 NNE 7 7 4 4 - - 0.0
19/05:20am 13.6 10.6 2.1 45 5.1 NNE 7 9 4 5 - - 0.0
19/05:10am 12.8 9.8 2.2 48 4.7 NNE 7 7 4 4 - - 0.0
19/05:00am 12.7 9.8 2.7 50 4.4 NNE 7 9 4 5 - - 0.0
19/04:50am 13.6 10.7 2.8 48 4.8 NNE 7 9 4 5 - - 0.0
19/04:40am 14.4 11.5 2.4 44 5.4 NNE 7 9 4 5 - - 0.0
19/04:30am 13.9 10.9 2.2 45 5.2 NNE 7 9 4 5 - - 0.0
19/04:20am 13.3 10.3 2.2 47 4.9 NNE 7 9 4 5 - - 0.0
19/04:10am 13.5 10.8 2.5 47 4.9 NNE 6 6 3 3 - - 0.0
19/04:00am 14.0 11.1 2.4 45 5.2 NNE 7 7 4 4 - - 0.0
19/03:50am 13.7 10.9 2.3 46 5.1 NNE 6 6 3 3 - - 0.0
19/03:40am 14.0 11.2 2.3 45 5.2 NNE 6 6 3 3 - - 0.0
19/03:30am 14.2 11.4 2.2 44 5.3 NNE 6 7 3 4 - - 0.0
19/03:20am 13.6 10.7 2.4 46 5.0 NNE 7 7 4 4 - - 0.0
19/03:10am 14.1 11.1 1.9 43 5.4 NNE 7 9 4 5 - - 0.0
19/03:00am 13.3 10.2 1.5 44 5.1 NNE 7 7 4 4 - - 0.0
19/02:50am 13.2 10.2 2.2 47 4.9 NNE 7 7 4 4 - - 0.0
19/02:40am 13.7 10.7 1.8 44 5.2 NNE 7 7 4 4 - - 0.0
19/02:30am 14.0 11.0 2.2 45 5.2 NNE 7 7 4 4 - - 0.0
19/02:20am 14.3 11.5 1.9 43 5.5 NNE 6 6 3 3 - - 0.0
19/02:10am 14.4 12.3 1.6 42 5.6 NNE 2 4 1 2 - - 0.0
19/02:00am 13.8 10.9 1.6 43 5.3 NNE 6 6 3 3 - - 0.0
19/01:50am 13.6 10.6 1.7 44 5.2 NNE 7 7 4 4 - - 0.0
19/01:40am 13.8 10.8 2.1 45 5.2 NNE 7 7 4 4 - - 0.0
19/01:30am 13.8 10.8 1.7 44 5.3 NE 7 7 4 4 - - 0.0
19/01:20am 13.7 10.7 1.8 44 5.2 NE 7 9 4 5 - - 0.0
19/01:00am 13.2 10.2 1.8 46 5.0 NE 7 7 4 4 - - 0.0
19/12:50am 13.2 10.2 2.0 46 4.9 NNE 7 9 4 5 - - 0.0
19/12:40am 13.8 10.8 2.3 45 5.1 NNE 7 7 4 4 - - 0.0
19/12:30am 14.3 11.3 2.1 43 5.4 NNE 7 7 4 4 - - 0.0
19/12:20am 15.0 12.2 1.9 41 5.8 NNE 6 7 3 4 - - 0.0
19/12:10am 14.7 12.4 2.5 43 5.5 NE 4 4 2 2 - - 0.0
19/12:00am 15.2 12.8 1.9 40 5.9 ENE 4 4 2 2 - - 0.0
 
Date/Time
EDT
Temp
°C
App
Temp
°C
Dew
Point
°C
Rel
Hum
%
Delta-T
°C
Wind Press
QNH
hPa
Press
MSL
hPa
Rain since
9am
mm
Dir  Spd
km/h
Gust
km/h
Spd
kts
Gust
kts
18/11:50pm 15.2 12.8 1.9 40 5.9 ENE 4 4 2 2 - - 0.0
18/11:40pm 15.1 12.7 2.1 41 5.8 NE 4 6 2 3 - - 0.0
18/11:30pm 14.8 12.4 2.3 43 5.6 ENE 4 4 2 2 - - 0.0
18/11:20pm 14.2 11.7 1.3 41 5.6 ENE 4 4 2 2 - - 0.0
18/11:10pm 13.4 10.6 2.3 47 4.9 NE 6 6 3 3 - - 0.0
18/11:00pm 14.4 11.6 2.1 43 5.5 NE 6 7 3 4 - - 0.0
18/10:50pm 14.7 11.9 1.9 42 5.7 NE 6 7 3 4 - - 0.0
18/10:40pm 15.4 12.6 2.2 41 5.9 ENE 6 6 3 3 - - 0.0
18/10:30pm 16.0 13.6 2.2 39 6.2 ENE 4 6 2 3 - - 0.0
18/10:20pm 16.5 14.1 2.2 38 6.5 E 4 4 2 2 - - 0.0
18/10:00pm 16.1 13.6 1.8 38 6.4 E 4 6 2 3 - - 0.0
18/09:50pm 16.8 14.6 3.1 40 6.4 ENE 4 6 2 3 - - 0.0
18/09:40pm 17.1 15.0 1.9 36 6.9 ENE 2 2 1 1 - - 0.0
18/09:30pm 17.2 15.1 1.7 35 7.0 ESE 2 4 1 2 - - 0.0
18/09:20pm 17.1 15.0 1.8 35 6.9 ENE 2 2 1 1 - - 0.0
18/09:10pm 17.7 15.8 2.9 37 6.9 NNE 2 4 1 2 - - 0.0
18/09:00pm 17.6 15.5 1.7 34 7.2 NE 2 4 1 2 - - 0.0
18/08:50pm 18.3 16.6 2.0 33 7.5 CALM 0 2 0 1 - - 0.0
18/08:40pm 20.3 17.9 2.0 29 8.5 NW 4 6 2 3 - - 0.0
18/08:30pm 21.9 19.0 1.5 26 9.5 WNW 6 6 3 3 - - 0.0
18/08:20pm 23.0 20.1 1.3 24 10.2 WNW 6 7 3 4 - - 0.0
18/08:10pm 23.4 20.5 1.5 23 10.4 WNW 6 7 3 4 - - 0.0
18/08:00pm 24.3 21.3 1.8 23 10.8 W 7 7 4 4 - - 0.0
18/07:50pm 25.1 22.0 1.6 21 11.3 W 7 7 4 4 - - 0.0
18/07:40pm 25.7 22.6 1.5 20 11.6 W 7 9 4 5 - - 0.0
18/07:30pm 26.2 22.8 1.6 20 11.9 W 9 11 5 6 - - 0.0
18/07:20pm 26.7 22.4 1.3 19 12.3 W 13 17 7 9 - - 0.0
18/07:10pm 27.0 22.8 1.4 19 12.4 W 13 17 7 9 - - 0.0
18/07:00pm 27.2 22.6 1.5 19 12.5 W 15 19 8 10 - - 0.0
18/06:50pm 27.4 22.4 1.3 18 12.7 W 17 24 9 13 - - 0.0
18/06:40pm 27.5 22.5 1.6 18 12.6 WNW 17 20 9 11 - - 0.0
18/06:30pm 27.8 22.9 1.7 18 12.8 W 17 19 9 10 - - 0.0
18/06:20pm 28.1 23.5 1.4 18 13.0 W 15 22 8 12 - - 0.0
18/06:10pm 27.9 23.4 1.9 18 12.8 W 15 22 8 12 - - 0.0
18/06:00pm 28.3 24.2 2.0 18 13.0 W 13 19 7 10 - - 0.0
18/05:50pm 28.1 23.6 2.1 18 12.8 W 15 22 8 12 - - 0.0
18/05:40pm 28.2 22.9 1.8 18 13.0 WNW 19 26 10 14 - - 0.0
18/05:30pm 28.5 24.0 2.1 18 13.1 WSW 15 19 8 10 - - 0.0
18/05:20pm 28.5 24.0 1.9 18 13.1 WNW 15 19 8 10 - - 0.0
18/05:10pm 28.2 23.7 2.1 18 12.9 WNW 15 22 8 12 - - 0.0
18/05:00pm 28.3 24.6 2.4 19 12.9 WNW 11 17 6 9 - - 0.0
18/04:50pm 28.1 23.3 2.6 19 12.7 W 17 26 9 14 - - 0.0
18/04:40pm 28.3 24.2 2.4 19 12.9 WNW 13 22 7 12 - - 0.0
18/04:30pm 28.3 23.8 2.4 19 12.9 W 15 19 8 10 - - 0.0
18/04:20pm 28.4 23.5 2.3 18 13.0 NW 17 20 9 11 - - 0.0
18/04:10pm 28.2 23.3 2.2 18 12.9 W 17 22 9 12 - - 0.0
18/04:00pm 28.1 22.9 2.4 19 12.8 WNW 19 24 10 13 - - 0.0
18/03:50pm 27.7 23.3 2.5 19 12.5 W 15 20 8 11 - - 0.0
18/03:40pm 27.8 23.4 2.6 19 12.5 WNW 15 20 8 11 - - 0.0
18/03:30pm 27.7 23.6 2.5 19 12.5 WSW 13 19 7 10 - - 0.0
18/03:20pm 28.0 23.2 2.7 19 12.6 WNW 17 24 9 13 - - 0.0
18/03:10pm 28.1 23.6 2.3 19 12.8 W 15 22 8 12 - - 0.0
18/03:00pm 27.7 23.3 2.9 20 12.4 W 15 20 8 11 - - 0.0
18/02:50pm 27.7 22.9 2.5 19 12.5 WNW 17 20 9 11 - - 0.0
18/02:40pm 27.2 22.7 2.0 19 12.4 NW 15 19 8 10 - - 0.0
18/02:30pm 26.7 22.2 2.3 20 12.0 WSW 15 19 8 10 - - 0.0
18/02:20pm 26.9 22.3 1.6 19 12.3 WNW 15 20 8 11 - - 0.0
18/02:10pm 26.8 21.5 2.0 20 12.1 WNW 19 24 10 13 - - 0.0
18/02:00pm 26.7 21.8 2.1 20 12.0 WNW 17 20 9 11 - - 0.0
18/01:50pm 26.3 21.8 2.2 21 11.8 WNW 15 17 8 9 - - 0.0
18/01:40pm 26.2 20.9 1.9 20 11.8 WNW 19 28 10 15 - - 0.0
18/01:30pm 25.8 21.3 2.3 21 11.5 W 15 20 8 11 - - 0.0
18/01:20pm 25.7 21.2 1.9 21 11.5 W 15 20 8 11 - - 0.0
18/01:10pm 25.2 20.7 1.9 22 11.2 WNW 15 22 8 12 - - 0.0
18/01:00pm 24.7 20.1 1.8 22 11.0 W 15 19 8 10 - - 0.0
18/12:50pm 24.7 19.9 2.6 23 10.8 W 17 22 9 12 - - 0.0
18/12:40pm 25.0 21.2 2.0 22 11.1 W 11 15 6 8 - - 0.0
18/12:30pm 24.7 20.6 2.2 23 10.9 W 13 20 7 11 - - 0.0

Other formats

Comma delimited format used in spreadsheet applications
http://www.bom.gov.au/fwo/IDN60801/IDN60801.99998.axf

JavaScript Object Notation format (JSON) in row-major order
http://www.bom.gov.au/fwo/IDN60801/IDN60801.99998.json

Data quality

Most of these data are generated automatically and are frequently updated. Quality checks on data are not normally performed. It is possible for incorrect values to appear. Refer to information at About Latest Weather Observations and please check the disclaimer before using these data.